sensor_id;sensor_type;location;lat;lon;timestamp;P1;durP1;ratioP1;P2;durP2;ratioP2
27899;SDS011;15243;50.726;7.080;2022-12-31T00:01:24;0.20;;;0.20;;
27899;SDS011;15243;50.726;7.080;2022-12-31T00:03:52;0.28;;;0.28;;
27899;SDS011;15243;50.726;7.080;2022-12-31T00:08:48;3.20;;;0.30;;
27899;SDS011;15243;50.726;7.080;2022-12-31T00:11:16;1.20;;;0.20;;
27899;SDS011;15243;50.726;7.080;2022-12-31T00:13:43;0.30;;;0.22;;
27899;SDS011;15243;50.726;7.080;2022-12-31T00:16:16;0.30;;;0.20;;
27899;SDS011;15243;50.726;7.080;2022-12-31T00:18:46;0.32;;;0.25;;
27899;SDS011;15243;50.726;7.080;2022-12-31T00:21:14;0.63;;;0.20;;
27899;SDS011;15243;50.726;7.080;2022-12-31T00:23:42;0.38;;;0.22;;
27899;SDS011;15243;50.726;7.080;2022-12-31T00:26:11;0.68;;;0.20;;
27899;SDS011;15243;50.726;7.080;2022-12-31T00:28:40;0.45;;;0.20;;
27899;SDS011;15243;50.726;7.080;2022-12-31T00:31:13;1.80;;;0.20;;
27899;SDS011;15243;50.726;7.080;2022-12-31T00:33:41;0.57;;;0.20;;
27899;SDS011;15243;50.726;7.080;2022-12-31T00:38:44;0.40;;;0.20;;
27899;SDS011;15243;50.726;7.080;2022-12-31T00:41:12;0.73;;;0.57;;
27899;SDS011;15243;50.726;7.080;2022-12-31T00:43:41;0.35;;;0.20;;
27899;SDS011;15243;50.726;7.080;2022-12-31T00:46:08;0.13;;;0.13;;
27899;SDS011;15243;50.726;7.080;2022-12-31T00:48:36;1.42;;;0.20;;
27899;SDS011;15243;50.726;7.080;2022-12-31T00:51:05;0.17;;;0.15;;
27899;SDS011;15243;50.726;7.080;2022-12-31T00:53:33;0.82;;;0.35;;
27899;SDS011;15243;50.726;7.080;2022-12-31T00:56:00;0.10;;;0.10;;
27899;SDS011;15243;50.726;7.080;2022-12-31T00:58:28;0.20;;;0.20;;
27899;SDS011;15243;50.726;7.080;2022-12-31T01:00:56;0.10;;;0.10;;
27899;SDS011;15243;50.726;7.080;2022-12-31T01:03:23;0.20;;;0.20;;
27899;SDS011;15243;50.726;7.080;2022-12-31T01:05:51;0.20;;;0.10;;
27899;SDS011;15243;50.726;7.080;2022-12-31T01:08:17;1.92;;;0.20;;
27899;SDS011;15243;50.726;7.080;2022-12-31T01:10:48;0.10;;;0.10;;
27899;SDS011;15243;50.726;7.080;2022-12-31T01:13:33;0.30;;;0.17;;
27899;SDS011;15243;50.726;7.080;2022-12-31T01:16:07;0.60;;;0.10;;
27899;SDS011;15243;50.726;7.080;2022-12-31T01:18:35;0.10;;;0.10;;
27899;SDS011;15243;50.726;7.080;2022-12-31T01:21:03;0.43;;;0.10;;
27899;SDS011;15243;50.726;7.080;2022-12-31T01:23:31;0.10;;;0.10;;
27899;SDS011;15243;50.726;7.080;2022-12-31T01:25:59;0.10;;;0.10;;
27899;SDS011;15243;50.726;7.080;2022-12-31T01:28:27;0.10;;;0.10;;
27899;SDS011;15243;50.726;7.080;2022-12-31T01:30:54;0.30;;;0.17;;
27899;SDS011;15243;50.726;7.080;2022-12-31T01:33:21;0.20;;;0.10;;
27899;SDS011;15243;50.726;7.080;2022-12-31T01:35:48;0.10;;;0.10;;
27899;SDS011;15243;50.726;7.080;2022-12-31T01:38:15;0.10;;;0.10;;
27899;SDS011;15243;50.726;7.080;2022-12-31T01:40:41;0.10;;;0.10;;
27899;SDS011;15243;50.726;7.080;2022-12-31T01:43:16;0.40;;;0.10;;
27899;SDS011;15243;50.726;7.080;2022-12-31T01:45:48;0.10;;;0.10;;
27899;SDS011;15243;50.726;7.080;2022-12-31T01:48:20;0.10;;;0.10;;
27899;SDS011;15243;50.726;7.080;2022-12-31T01:53:18;0.00;;;0.00;;
27899;SDS011;15243;50.726;7.080;2022-12-31T01:55:50;0.10;;;0.10;;
27899;SDS011;15243;50.726;7.080;2022-12-31T01:58:32;0.70;;;0.10;;
27899;SDS011;15243;50.726;7.080;2022-12-31T02:01:05;0.00;;;0.00;;
27899;SDS011;15243;50.726;7.080;2022-12-31T02:03:34;0.10;;;0.10;;
27899;SDS011;15243;50.726;7.080;2022-12-31T02:06:10;0.10;;;0.10;;
27899;SDS011;15243;50.726;7.080;2022-12-31T02:08:42;0.38;;;0.10;;
27899;SDS011;15243;50.726;7.080;2022-12-31T02:11:19;0.10;;;0.10;;
27899;SDS011;15243;50.726;7.080;2022-12-31T02:13:52;0.70;;;0.10;;
27899;SDS011;15243;50.726;7.080;2022-12-31T02:16:29;1.20;;;0.10;;
27899;SDS011;15243;50.726;7.080;2022-12-31T02:27:22;0.13;;;0.13;;
27899;SDS011;15243;50.726;7.080;2022-12-31T02:30:14;0.65;;;0.10;;
27899;SDS011;15243;50.726;7.080;2022-12-31T02:35:42;0.98;;;0.10;;
27899;SDS011;15243;50.726;7.080;2022-12-31T02:38:23;2.25;;;0.20;;
27899;SDS011;15243;50.726;7.080;2022-12-31T02:40:57;0.13;;;0.10;;
27899;SDS011;15243;50.726;7.080;2022-12-31T02:43:25;0.25;;;0.20;;
27899;SDS011;15243;50.726;7.080;2022-12-31T02:46:01;1.45;;;0.28;;
27899;SDS011;15243;50.726;7.080;2022-12-31T02:48:48;0.10;;;0.10;;
27899;SDS011;15243;50.726;7.080;2022-12-31T02:54:24;0.80;;;0.10;;
27899;SDS011;15243;50.726;7.080;2022-12-31T02:59:56;0.10;;;0.10;;
27899;SDS011;15243;50.726;7.080;2022-12-31T03:02:46;1.35;;;0.10;;
27899;SDS011;15243;50.726;7.080;2022-12-31T03:05:16;0.40;;;0.10;;
27899;SDS011;15243;50.726;7.080;2022-12-31T03:07:44;0.15;;;0.10;;
27899;SDS011;15243;50.726;7.080;2022-12-31T03:10:11;0.20;;;0.10;;
27899;SDS011;15243;50.726;7.080;2022-12-31T03:12:38;0.15;;;0.15;;
27899;SDS011;15243;50.726;7.080;2022-12-31T03:20:36;0.65;;;0.20;;
27899;SDS011;15243;50.726;7.080;2022-12-31T03:23:33;0.20;;;0.20;;
27899;SDS011;15243;50.726;7.080;2022-12-31T03:26:05;0.35;;;0.30;;
27899;SDS011;15243;50.726;7.080;2022-12-31T03:28:36;0.63;;;0.20;;
27899;SDS011;15243;50.726;7.080;2022-12-31T03:31:04;0.10;;;0.10;;
27899;SDS011;15243;50.726;7.080;2022-12-31T03:33:32;0.52;;;0.10;;
27899;SDS011;15243;50.726;7.080;2022-12-31T03:36:05;0.32;;;0.10;;
27899;SDS011;15243;50.726;7.080;2022-12-31T03:38:37;0.20;;;0.20;;
27899;SDS011;15243;50.726;7.080;2022-12-31T03:41:04;0.20;;;0.10;;
27899;SDS011;15243;50.726;7.080;2022-12-31T03:43:31;0.10;;;0.10;;
27899;SDS011;15243;50.726;7.080;2022-12-31T03:45:58;0.30;;;0.15;;
27899;SDS011;15243;50.726;7.080;2022-12-31T03:48:26;0.20;;;0.10;;
27899;SDS011;15243;50.726;7.080;2022-12-31T03:50:53;0.10;;;0.10;;
27899;SDS011;15243;50.726;7.080;2022-12-31T03:53:20;0.20;;;0.10;;
27899;SDS011;15243;50.726;7.080;2022-12-31T03:55:50;0.25;;;0.10;;
27899;SDS011;15243;50.726;7.080;2022-12-31T03:58:18;0.05;;;0.05;;
27899;SDS011;15243;50.726;7.080;2022-12-31T04:00:45;0.32;;;0.10;;
27899;SDS011;15243;50.726;7.080;2022-12-31T04:03:12;0.10;;;0.10;;
27899;SDS011;15243;50.726;7.080;2022-12-31T04:05:39;0.25;;;0.10;;
27899;SDS011;15243;50.726;7.080;2022-12-31T04:08:06;0.45;;;0.20;;
27899;SDS011;15243;50.726;7.080;2022-12-31T04:10:33;0.00;;;0.00;;
27899;SDS011;15243;50.726;7.080;2022-12-31T04:13:00;0.50;;;0.13;;
27899;SDS011;15243;50.726;7.080;2022-12-31T04:15:29;0.30;;;0.10;;
27899;SDS011;15243;50.726;7.080;2022-12-31T04:17:56;1.08;;;0.10;;
27899;SDS011;15243;50.726;7.080;2022-12-31T04:20:23;0.10;;;0.10;;
27899;SDS011;15243;50.726;7.080;2022-12-31T04:22:50;0.65;;;0.10;;
27899;SDS011;15243;50.726;7.080;2022-12-31T04:25:17;1.10;;;0.10;;
27899;SDS011;15243;50.726;7.080;2022-12-31T04:27:44;0.55;;;0.20;;
27899;SDS011;15243;50.726;7.080;2022-12-31T04:30:11;0.80;;;0.22;;
27899;SDS011;15243;50.726;7.080;2022-12-31T04:32:39;1.48;;;0.50;;
27899;SDS011;15243;50.726;7.080;2022-12-31T04:35:06;0.45;;;0.30;;
27899;SDS011;15243;50.726;7.080;2022-12-31T04:37:34;0.20;;;0.13;;
27899;SDS011;15243;50.726;7.080;2022-12-31T04:40:01;0.35;;;0.17;;
27899;SDS011;15243;50.726;7.080;2022-12-31T04:42:32;0.47;;;0.35;;
27899;SDS011;15243;50.726;7.080;2022-12-31T04:44:59;0.22;;;0.20;;
27899;SDS011;15243;50.726;7.080;2022-12-31T04:47:26;0.20;;;0.20;;
27899;SDS011;15243;50.726;7.080;2022-12-31T04:49:53;0.17;;;0.10;;
27899;SDS011;15243;50.726;7.080;2022-12-31T04:52:19;1.17;;;0.28;;
27899;SDS011;15243;50.726;7.080;2022-12-31T04:54:46;0.52;;;0.30;;
27899;SDS011;15243;50.726;7.080;2022-12-31T04:57:13;1.17;;;0.30;;
27899;SDS011;15243;50.726;7.080;2022-12-31T04:59:40;0.90;;;0.38;;
27899;SDS011;15243;50.726;7.080;2022-12-31T05:02:07;0.90;;;0.20;;
27899;SDS011;15243;50.726;7.080;2022-12-31T05:04:34;1.08;;;0.40;;
27899;SDS011;15243;50.726;7.080;2022-12-31T05:07:01;0.57;;;0.40;;
27899;SDS011;15243;50.726;7.080;2022-12-31T05:09:28;0.70;;;0.30;;
27899;SDS011;15243;50.726;7.080;2022-12-31T05:11:56;0.40;;;0.20;;
27899;SDS011;15243;50.726;7.080;2022-12-31T05:14:23;0.45;;;0.35;;
27899;SDS011;15243;50.726;7.080;2022-12-31T05:16:50;1.10;;;0.40;;
27899;SDS011;15243;50.726;7.080;2022-12-31T05:19:17;2.20;;;0.35;;
27899;SDS011;15243;50.726;7.080;2022-12-31T05:21:44;2.22;;;0.57;;
27899;SDS011;15243;50.726;7.080;2022-12-31T05:24:30;1.90;;;0.40;;
27899;SDS011;15243;50.726;7.080;2022-12-31T05:26:57;1.67;;;0.57;;
27899;SDS011;15243;50.726;7.080;2022-12-31T05:29:25;0.90;;;0.50;;
27899;SDS011;15243;50.726;7.080;2022-12-31T05:31:51;0.55;;;0.30;;
27899;SDS011;15243;50.726;7.080;2022-12-31T05:34:18;0.68;;;0.40;;
27899;SDS011;15243;50.726;7.080;2022-12-31T05:36:45;1.20;;;0.43;;
27899;SDS011;15243;50.726;7.080;2022-12-31T05:39:12;2.47;;;0.30;;
27899;SDS011;15243;50.726;7.080;2022-12-31T05:41:39;1.67;;;0.43;;
27899;SDS011;15243;50.726;7.080;2022-12-31T05:44:05;2.83;;;0.70;;
27899;SDS011;15243;50.726;7.080;2022-12-31T05:46:32;2.92;;;0.68;;
27899;SDS011;15243;50.726;7.080;2022-12-31T05:48:59;2.28;;;0.50;;
27899;SDS011;15243;50.726;7.080;2022-12-31T05:51:26;0.90;;;0.50;;
27899;SDS011;15243;50.726;7.080;2022-12-31T05:53:52;2.22;;;0.45;;
27899;SDS011;15243;50.726;7.080;2022-12-31T05:56:19;0.90;;;0.50;;
27899;SDS011;15243;50.726;7.080;2022-12-31T05:58:46;2.13;;;0.45;;
27899;SDS011;15243;50.726;7.080;2022-12-31T06:01:13;1.50;;;0.40;;
27899;SDS011;15243;50.726;7.080;2022-12-31T06:03:40;2.58;;;0.50;;
27899;SDS011;15243;50.726;7.080;2022-12-31T06:06:07;2.58;;;0.50;;
27899;SDS011;15243;50.726;7.080;2022-12-31T06:08:33;0.40;;;0.40;;
27899;SDS011;15243;50.726;7.080;2022-12-31T06:11:00;3.47;;;0.55;;
27899;SDS011;15243;50.726;7.080;2022-12-31T06:13:27;3.17;;;1.13;;
27899;SDS011;15243;50.726;7.080;2022-12-31T06:15:54;2.50;;;0.90;;
27899;SDS011;15243;50.726;7.080;2022-12-31T06:18:21;2.17;;;0.43;;
27899;SDS011;15243;50.726;7.080;2022-12-31T06:20:48;1.52;;;0.40;;
27899;SDS011;15243;50.726;7.080;2022-12-31T06:23:15;1.52;;;0.60;;
27899;SDS011;15243;50.726;7.080;2022-12-31T06:25:41;4.28;;;0.65;;
27899;SDS011;15243;50.726;7.080;2022-12-31T06:28:08;2.03;;;0.57;;
27899;SDS011;15243;50.726;7.080;2022-12-31T06:30:44;4.43;;;0.77;;
27899;SDS011;15243;50.726;7.080;2022-12-31T06:33:11;1.02;;;0.50;;
27899;SDS011;15243;50.726;7.080;2022-12-31T06:35:38;1.88;;;0.60;;
27899;SDS011;15243;50.726;7.080;2022-12-31T06:38:05;2.10;;;0.50;;
27899;SDS011;15243;50.726;7.080;2022-12-31T06:40:32;0.98;;;0.43;;
27899;SDS011;15243;50.726;7.080;2022-12-31T06:43:01;1.10;;;0.40;;
27899;SDS011;15243;50.726;7.080;2022-12-31T06:45:28;1.90;;;0.63;;
27899;SDS011;15243;50.726;7.080;2022-12-31T06:47:55;2.45;;;0.70;;
27899;SDS011;15243;50.726;7.080;2022-12-31T06:50:22;2.42;;;0.50;;
27899;SDS011;15243;50.726;7.080;2022-12-31T06:52:50;0.98;;;0.45;;
27899;SDS011;15243;50.726;7.080;2022-12-31T06:55:16;1.33;;;0.50;;
27899;SDS011;15243;50.726;7.080;2022-12-31T06:57:44;2.90;;;0.70;;
27899;SDS011;15243;50.726;7.080;2022-12-31T07:00:11;3.28;;;0.60;;
27899;SDS011;15243;50.726;7.080;2022-12-31T07:08:14;3.50;;;0.50;;
27899;SDS011;15243;50.726;7.080;2022-12-31T07:10:52;1.25;;;0.80;;
27899;SDS011;15243;50.726;7.080;2022-12-31T07:21:47;1.95;;;0.60;;
27899;SDS011;15243;50.726;7.080;2022-12-31T07:24:15;2.42;;;0.60;;
27899;SDS011;15243;50.726;7.080;2022-12-31T07:29:35;2.38;;;0.40;;
27899;SDS011;15243;50.726;7.080;2022-12-31T07:32:28;1.90;;;0.50;;
27899;SDS011;15243;50.726;7.080;2022-12-31T07:41:11;0.77;;;0.45;;
27899;SDS011;15243;50.726;7.080;2022-12-31T07:46:59;2.28;;;0.88;;
27899;SDS011;15243;50.726;7.080;2022-12-31T07:49:37;3.75;;;0.88;;
27899;SDS011;15243;50.726;7.080;2022-12-31T07:52:08;2.83;;;0.95;;
27899;SDS011;15243;50.726;7.080;2022-12-31T07:54:35;1.45;;;0.70;;
27899;SDS011;15243;50.726;7.080;2022-12-31T07:57:02;1.88;;;0.60;;
27899;SDS011;15243;50.726;7.080;2022-12-31T08:10:48;3.25;;;0.70;;
27899;SDS011;15243;50.726;7.080;2022-12-31T08:13:37;2.17;;;0.95;;
27899;SDS011;15243;50.726;7.080;2022-12-31T08:16:07;1.88;;;0.70;;
27899;SDS011;15243;50.726;7.080;2022-12-31T08:18:37;2.38;;;0.70;;
27899;SDS011;15243;50.726;7.080;2022-12-31T08:32:35;1.13;;;0.60;;
27899;SDS011;15243;50.726;7.080;2022-12-31T08:37:24;5.68;;;2.70;;
27899;SDS011;15243;50.726;7.080;2022-12-31T08:45:42;11.05;;;5.60;;
27899;SDS011;15243;50.726;7.080;2022-12-31T08:51:01;2.05;;;0.73;;
27899;SDS011;15243;50.726;7.080;2022-12-31T08:53:28;5.35;;;1.48;;
27899;SDS011;15243;50.726;7.080;2022-12-31T08:55:58;5.03;;;3.15;;
27899;SDS011;15243;50.726;7.080;2022-12-31T08:58:45;2.15;;;1.10;;
27899;SDS011;15243;50.726;7.080;2022-12-31T09:01:26;3.70;;;0.80;;
27899;SDS011;15243;50.726;7.080;2022-12-31T09:04:09;6.00;;;1.02;;
27899;SDS011;15243;50.726;7.080;2022-12-31T09:07:00;3.47;;;0.95;;
27899;SDS011;15243;50.726;7.080;2022-12-31T09:14:47;6.50;;;2.30;;
27899;SDS011;15243;50.726;7.080;2022-12-31T09:19:48;2.85;;;1.30;;
27899;SDS011;15243;50.726;7.080;2022-12-31T09:22:15;10.77;;;5.80;;
27899;SDS011;15243;50.726;7.080;2022-12-31T09:24:42;2.28;;;0.90;;
27899;SDS011;15243;50.726;7.080;2022-12-31T09:27:14;7.18;;;2.42;;
27899;SDS011;15243;50.726;7.080;2022-12-31T09:30:06;3.95;;;2.22;;
27899;SDS011;15243;50.726;7.080;2022-12-31T09:32:46;1.90;;;0.77;;
27899;SDS011;15243;50.726;7.080;2022-12-31T09:46:34;8.38;;;0.95;;
27899;SDS011;15243;50.726;7.080;2022-12-31T09:49:45;5.00;;;1.42;;
27899;SDS011;15243;50.726;7.080;2022-12-31T10:03:59;1.63;;;0.60;;
27899;SDS011;15243;50.726;7.080;2022-12-31T10:12:32;2.35;;;0.95;;
27899;SDS011;15243;50.726;7.080;2022-12-31T10:15:29;5.85;;;0.90;;
27899;SDS011;15243;50.726;7.080;2022-12-31T10:36:50;4.35;;;1.05;;
27899;SDS011;15243;50.726;7.080;2022-12-31T11:16:02;5.07;;;1.40;;
27899;SDS011;15243;50.726;7.080;2022-12-31T11:19:09;5.03;;;1.33;;
27899;SDS011;15243;50.726;7.080;2022-12-31T11:24:55;2.25;;;0.98;;
27899;SDS011;15243;50.726;7.080;2022-12-31T11:30:21;7.05;;;1.55;;
27899;SDS011;15243;50.726;7.080;2022-12-31T11:36:32;8.15;;;3.03;;
27899;SDS011;15243;50.726;7.080;2022-12-31T11:42:12;5.07;;;1.38;;
27899;SDS011;15243;50.726;7.080;2022-12-31T11:45:03;5.70;;;1.20;;
27899;SDS011;15243;50.726;7.080;2022-12-31T11:47:50;3.15;;;1.17;;
27899;SDS011;15243;50.726;7.080;2022-12-31T11:53:35;4.95;;;1.10;;
27899;SDS011;15243;50.726;7.080;2022-12-31T11:58:36;4.30;;;1.30;;
27899;SDS011;15243;50.726;7.080;2022-12-31T12:01:09;4.47;;;1.30;;
27899;SDS011;15243;50.726;7.080;2022-12-31T12:03:39;3.33;;;1.27;;
27899;SDS011;15243;50.726;7.080;2022-12-31T12:06:10;3.33;;;1.63;;
27899;SDS011;15243;50.726;7.080;2022-12-31T12:08:38;5.03;;;1.40;;
27899;SDS011;15243;50.726;7.080;2022-12-31T12:11:09;4.53;;;1.38;;
27899;SDS011;15243;50.726;7.080;2022-12-31T12:13:44;6.57;;;1.40;;
27899;SDS011;15243;50.726;7.080;2022-12-31T12:16:10;2.63;;;1.70;;
27899;SDS011;15243;50.726;7.080;2022-12-31T12:18:43;5.82;;;1.23;;
27899;SDS011;15243;50.726;7.080;2022-12-31T12:21:13;6.28;;;1.55;;
27899;SDS011;15243;50.726;7.080;2022-12-31T12:23:52;4.32;;;1.23;;
27899;SDS011;15243;50.726;7.080;2022-12-31T12:26:34;5.35;;;2.17;;
27899;SDS011;15243;50.726;7.080;2022-12-31T12:29:11;7.82;;;1.55;;
27899;SDS011;15243;50.726;7.080;2022-12-31T12:31:57;3.08;;;1.13;;
27899;SDS011;15243;50.726;7.080;2022-12-31T12:34:35;6.15;;;2.50;;
27899;SDS011;15243;50.726;7.080;2022-12-31T12:39:56;2.53;;;1.23;;
27899;SDS011;15243;50.726;7.080;2022-12-31T12:42:47;2.70;;;1.63;;
27899;SDS011;15243;50.726;7.080;2022-12-31T12:45:16;4.13;;;2.38;;
27899;SDS011;15243;50.726;7.080;2022-12-31T12:47:49;4.85;;;1.55;;
27899;SDS011;15243;50.726;7.080;2022-12-31T12:50:21;4.72;;;1.17;;
27899;SDS011;15243;50.726;7.080;2022-12-31T12:58:12;2.75;;;0.80;;
27899;SDS011;15243;50.726;7.080;2022-12-31T13:06:41;5.15;;;1.10;;
27899;SDS011;15243;50.726;7.080;2022-12-31T13:09:30;4.00;;;1.30;;
27899;SDS011;15243;50.726;7.080;2022-12-31T13:14:51;4.18;;;0.82;;
27899;SDS011;15243;50.726;7.080;2022-12-31T13:23:14;3.67;;;1.05;;
27899;SDS011;15243;50.726;7.080;2022-12-31T13:25:57;4.05;;;1.08;;
27899;SDS011;15243;50.726;7.080;2022-12-31T13:28:49;3.60;;;0.88;;
27899;SDS011;15243;50.726;7.080;2022-12-31T13:31:20;2.92;;;1.00;;
27899;SDS011;15243;50.726;7.080;2022-12-31T13:34:02;3.17;;;0.85;;
27899;SDS011;15243;50.726;7.080;2022-12-31T13:36:32;7.13;;;1.00;;
27899;SDS011;15243;50.726;7.080;2022-12-31T13:39:06;1.60;;;0.75;;
27899;SDS011;15243;50.726;7.080;2022-12-31T13:41:47;4.70;;;1.23;;
27899;SDS011;15243;50.726;7.080;2022-12-31T13:44:28;5.30;;;0.98;;
27899;SDS011;15243;50.726;7.080;2022-12-31T13:50:12;2.80;;;1.00;;
27899;SDS011;15243;50.726;7.080;2022-12-31T13:52:53;4.53;;;1.13;;
27899;SDS011;15243;50.726;7.080;2022-12-31T13:55:48;2.30;;;1.23;;
27899;SDS011;15243;50.726;7.080;2022-12-31T13:58:25;4.70;;;1.45;;
27899;SDS011;15243;50.726;7.080;2022-12-31T14:01:14;9.18;;;4.05;;
27899;SDS011;15243;50.726;7.080;2022-12-31T14:03:55;12.57;;;5.57;;
27899;SDS011;15243;50.726;7.080;2022-12-31T14:06:40;5.53;;;2.60;;
27899;SDS011;15243;50.726;7.080;2022-12-31T14:09:15;4.80;;;2.67;;
27899;SDS011;15243;50.726;7.080;2022-12-31T14:12:12;5.47;;;1.67;;
27899;SDS011;15243;50.726;7.080;2022-12-31T14:14:59;5.50;;;1.60;;
27899;SDS011;15243;50.726;7.080;2022-12-31T14:17:36;2.85;;;1.13;;
27899;SDS011;15243;50.726;7.080;2022-12-31T14:25:58;10.15;;;1.70;;
27899;SDS011;15243;50.726;7.080;2022-12-31T14:28:32;4.80;;;2.45;;
27899;SDS011;15243;50.726;7.080;2022-12-31T14:31:29;6.68;;;1.80;;
27899;SDS011;15243;50.726;7.080;2022-12-31T14:34:12;6.90;;;4.10;;
27899;SDS011;15243;50.726;7.080;2022-12-31T14:50:22;3.65;;;1.08;;
27899;SDS011;15243;50.726;7.080;2022-12-31T14:52:53;3.47;;;2.05;;
27899;SDS011;15243;50.726;7.080;2022-12-31T14:55:30;3.70;;;1.73;;
27899;SDS011;15243;50.726;7.080;2022-12-31T14:58:03;3.35;;;1.20;;
27899;SDS011;15243;50.726;7.080;2022-12-31T15:00:58;3.22;;;1.80;;
27899;SDS011;15243;50.726;7.080;2022-12-31T15:06:08;3.78;;;1.60;;
27899;SDS011;15243;50.726;7.080;2022-12-31T15:09:02;4.97;;;1.85;;
27899;SDS011;15243;50.726;7.080;2022-12-31T15:22:56;4.90;;;2.10;;
27899;SDS011;15243;50.726;7.080;2022-12-31T15:25:34;6.72;;;1.85;;
27899;SDS011;15243;50.726;7.080;2022-12-31T15:28:07;10.25;;;4.15;;
27899;SDS011;15243;50.726;7.080;2022-12-31T15:36:28;4.72;;;2.60;;
27899;SDS011;15243;50.726;7.080;2022-12-31T15:39:20;6.13;;;2.85;;
27899;SDS011;15243;50.726;7.080;2022-12-31T15:41:51;7.38;;;2.30;;
27899;SDS011;15243;50.726;7.080;2022-12-31T15:44:50;9.00;;;3.78;;
27899;SDS011;15243;50.726;7.080;2022-12-31T15:47:40;8.13;;;3.20;;
27899;SDS011;15243;50.726;7.080;2022-12-31T15:50:13;5.47;;;2.50;;
27899;SDS011;15243;50.726;7.080;2022-12-31T15:52:45;7.90;;;3.35;;
27899;SDS011;15243;50.726;7.080;2022-12-31T15:55:20;31.08;;;17.60;;
27899;SDS011;15243;50.726;7.080;2022-12-31T15:58:01;4.97;;;1.90;;
27899;SDS011;15243;50.726;7.080;2022-12-31T16:00:36;4.80;;;1.50;;
27899;SDS011;15243;50.726;7.080;2022-12-31T16:03:21;2.47;;;1.15;;
27899;SDS011;15243;50.726;7.080;2022-12-31T16:05:50;5.93;;;1.42;;
27899;SDS011;15243;50.726;7.080;2022-12-31T16:08:21;5.63;;;1.50;;
27899;SDS011;15243;50.726;7.080;2022-12-31T16:10:52;4.75;;;2.38;;
27899;SDS011;15243;50.726;7.080;2022-12-31T16:13:21;5.30;;;1.80;;
27899;SDS011;15243;50.726;7.080;2022-12-31T16:15:50;6.07;;;1.58;;
27899;SDS011;15243;50.726;7.080;2022-12-31T16:18:40;8.10;;;2.42;;
27899;SDS011;15243;50.726;7.080;2022-12-31T16:23:59;3.72;;;1.75;;
27899;SDS011;15243;50.726;7.080;2022-12-31T16:26:47;4.15;;;1.65;;
27899;SDS011;15243;50.726;7.080;2022-12-31T16:29:17;5.15;;;1.67;;
27899;SDS011;15243;50.726;7.080;2022-12-31T16:31:47;3.70;;;1.40;;
27899;SDS011;15243;50.726;7.080;2022-12-31T16:34:17;6.35;;;1.30;;
27899;SDS011;15243;50.726;7.080;2022-12-31T16:36:58;6.90;;;2.17;;
27899;SDS011;15243;50.726;7.080;2022-12-31T16:39:32;4.05;;;1.40;;
27899;SDS011;15243;50.726;7.080;2022-12-31T16:44:39;5.30;;;1.83;;
27899;SDS011;15243;50.726;7.080;2022-12-31T16:47:07;3.90;;;1.25;;
27899;SDS011;15243;50.726;7.080;2022-12-31T16:49:40;5.25;;;1.50;;
27899;SDS011;15243;50.726;7.080;2022-12-31T16:52:16;3.35;;;1.20;;
27899;SDS011;15243;50.726;7.080;2022-12-31T16:54:56;6.57;;;2.15;;
27899;SDS011;15243;50.726;7.080;2022-12-31T16:57:24;6.60;;;2.30;;
27899;SDS011;15243;50.726;7.080;2022-12-31T16:59:57;4.55;;;2.35;;
27899;SDS011;15243;50.726;7.080;2022-12-31T17:02:37;6.78;;;2.47;;
27899;SDS011;15243;50.726;7.080;2022-12-31T17:05:16;3.70;;;1.88;;
27899;SDS011;15243;50.726;7.080;2022-12-31T17:07:47;5.18;;;2.22;;
27899;SDS011;15243;50.726;7.080;2022-12-31T17:10:25;7.15;;;3.42;;
27899;SDS011;15243;50.726;7.080;2022-12-31T17:13:00;9.00;;;3.50;;
27899;SDS011;15243;50.726;7.080;2022-12-31T17:15:48;6.90;;;3.30;;
27899;SDS011;15243;50.726;7.080;2022-12-31T17:18:18;4.82;;;2.47;;
27899;SDS011;15243;50.726;7.080;2022-12-31T17:20:47;4.53;;;2.97;;
27899;SDS011;15243;50.726;7.080;2022-12-31T17:23:26;11.50;;;2.13;;
27899;SDS011;15243;50.726;7.080;2022-12-31T17:25:57;6.25;;;1.98;;
27899;SDS011;15243;50.726;7.080;2022-12-31T17:28:40;5.72;;;1.83;;
27899;SDS011;15243;50.726;7.080;2022-12-31T17:31:32;7.47;;;2.35;;
27899;SDS011;15243;50.726;7.080;2022-12-31T17:36:40;5.95;;;1.60;;
27899;SDS011;15243;50.726;7.080;2022-12-31T17:39:20;9.32;;;2.10;;
27899;SDS011;15243;50.726;7.080;2022-12-31T17:41:49;5.30;;;1.70;;
27899;SDS011;15243;50.726;7.080;2022-12-31T17:44:21;9.65;;;1.48;;
27899;SDS011;15243;50.726;7.080;2022-12-31T17:49:18;5.18;;;1.98;;
27899;SDS011;15243;50.726;7.080;2022-12-31T17:51:53;8.27;;;1.65;;
27899;SDS011;15243;50.726;7.080;2022-12-31T17:54:19;8.05;;;1.85;;
27899;SDS011;15243;50.726;7.080;2022-12-31T17:56:46;5.60;;;1.88;;
27899;SDS011;15243;50.726;7.080;2022-12-31T17:59:21;5.70;;;2.17;;
27899;SDS011;15243;50.726;7.080;2022-12-31T18:01:49;7.07;;;2.05;;
27899;SDS011;15243;50.726;7.080;2022-12-31T18:04:17;7.95;;;2.38;;
27899;SDS011;15243;50.726;7.080;2022-12-31T18:06:45;5.40;;;2.20;;
27899;SDS011;15243;50.726;7.080;2022-12-31T18:09:12;3.75;;;1.38;;
27899;SDS011;15243;50.726;7.080;2022-12-31T18:11:41;7.22;;;2.33;;
27899;SDS011;15243;50.726;7.080;2022-12-31T18:14:09;8.23;;;2.28;;
27899;SDS011;15243;50.726;7.080;2022-12-31T18:16:40;6.50;;;2.53;;
27899;SDS011;15243;50.726;7.080;2022-12-31T18:19:12;8.57;;;1.92;;
27899;SDS011;15243;50.726;7.080;2022-12-31T18:22:00;7.15;;;2.25;;
27899;SDS011;15243;50.726;7.080;2022-12-31T18:24:27;4.60;;;1.70;;
27899;SDS011;15243;50.726;7.080;2022-12-31T18:26:53;5.65;;;2.90;;
27899;SDS011;15243;50.726;7.080;2022-12-31T18:29:20;7.40;;;1.80;;
27899;SDS011;15243;50.726;7.080;2022-12-31T18:31:48;9.25;;;2.95;;
27899;SDS011;15243;50.726;7.080;2022-12-31T18:34:15;8.48;;;1.80;;
27899;SDS011;15243;50.726;7.080;2022-12-31T18:36:43;5.88;;;1.95;;
27899;SDS011;15243;50.726;7.080;2022-12-31T18:39:11;5.00;;;2.08;;
27899;SDS011;15243;50.726;7.080;2022-12-31T18:41:39;7.07;;;2.45;;
27899;SDS011;15243;50.726;7.080;2022-12-31T18:44:09;7.18;;;1.90;;
27899;SDS011;15243;50.726;7.080;2022-12-31T18:46:39;9.15;;;2.92;;
27899;SDS011;15243;50.726;7.080;2022-12-31T18:49:07;9.93;;;2.40;;
27899;SDS011;15243;50.726;7.080;2022-12-31T18:51:34;10.75;;;3.05;;
27899;SDS011;15243;50.726;7.080;2022-12-31T18:54:01;7.55;;;2.30;;
27899;SDS011;15243;50.726;7.080;2022-12-31T18:56:28;9.25;;;3.22;;
27899;SDS011;15243;50.726;7.080;2022-12-31T18:58:56;4.90;;;2.40;;
27899;SDS011;15243;50.726;7.080;2022-12-31T19:01:27;7.90;;;3.35;;
27899;SDS011;15243;50.726;7.080;2022-12-31T19:03:59;7.57;;;2.42;;
27899;SDS011;15243;50.726;7.080;2022-12-31T19:06:36;8.02;;;1.90;;
27899;SDS011;15243;50.726;7.080;2022-12-31T19:09:02;5.47;;;1.83;;
27899;SDS011;15243;50.726;7.080;2022-12-31T19:11:50;7.55;;;2.00;;
27899;SDS011;15243;50.726;7.080;2022-12-31T19:14:17;6.18;;;2.13;;
27899;SDS011;15243;50.726;7.080;2022-12-31T19:16:47;6.70;;;2.13;;
27899;SDS011;15243;50.726;7.080;2022-12-31T19:19:15;8.85;;;2.25;;
27899;SDS011;15243;50.726;7.080;2022-12-31T19:21:42;8.70;;;2.10;;
27899;SDS011;15243;50.726;7.080;2022-12-31T19:24:14;5.20;;;2.00;;
27899;SDS011;15243;50.726;7.080;2022-12-31T19:26:44;7.80;;;2.17;;
27899;SDS011;15243;50.726;7.080;2022-12-31T19:29:24;7.10;;;2.20;;
27899;SDS011;15243;50.726;7.080;2022-12-31T19:31:52;6.65;;;3.15;;
27899;SDS011;15243;50.726;7.080;2022-12-31T19:34:19;12.05;;;2.50;;
27899;SDS011;15243;50.726;7.080;2022-12-31T19:36:46;12.23;;;2.47;;
27899;SDS011;15243;50.726;7.080;2022-12-31T19:39:14;10.55;;;2.90;;
27899;SDS011;15243;50.726;7.080;2022-12-31T19:41:43;7.35;;;1.98;;
27899;SDS011;15243;50.726;7.080;2022-12-31T19:44:13;7.65;;;2.22;;
27899;SDS011;15243;50.726;7.080;2022-12-31T19:46:41;9.98;;;1.92;;
27899;SDS011;15243;50.726;7.080;2022-12-31T19:49:11;10.10;;;2.00;;
27899;SDS011;15243;50.726;7.080;2022-12-31T19:51:39;6.82;;;2.50;;
27899;SDS011;15243;50.726;7.080;2022-12-31T19:54:06;11.40;;;1.90;;
27899;SDS011;15243;50.726;7.080;2022-12-31T19:56:35;8.90;;;2.42;;